Aviation Digital Data Service (ADDS)

Output produced by TAFs form (0040 UTC 17 January 2017)
found at http://aviationweather.gov/adds/tafs/
 
KTUS 162327Z 1700/1724 33007KT P6SM SCT060 BKN250 
     FM170600 14005KT P6SM FEW060 BKN250 
     FM172100 31007KT P6SM SCT070 BKN250